Terminal Aerodrome Forecast
Issued by NWS

Home | Current Version | Previous Version | Text Only | Print | Product List | Glossary On
Versions: 1 2 3 4 5 6 7 8 9 10 11 12 13 14 15 16 17
000
FTUS43 KLSX 161700
TAFCPS
TAF
KCPS 161720Z 1618/1718 16015G25KT P6SM BKN250
     FM170200 16006KT P6SM BKN250
     FM171500 19007KT P6SM SCT040 BKN150=

USA.gov is the U.S. government's official web portal to all federal, state and local government web resources and services.